CPX206 Details

Departure: Sacramento International Airport (KSMF)
Arrival: Seattle-Tacoma International Airport (KSEA) at N/A
Route: RBL J126 OED J1 SEA
Notes:


Current Weather Information
KSMF 250353Z 18009KT 10SM CLR 27/15 A2984 RMK AO2 SLP105 T02720150
KSEA 250353Z 05011KT 10SM BKN038 21/12 A3002 RMK AO2 SLP170 T02060117